sensor_id;sensor_type;location;lat;lon;timestamp;pressure;altitude;pressure_sealevel;temperature;humidity
19150;BME280;9707;49.158;8.632;2023-05-22T00:02:13;99953.13;;;25.22;40.47
19150;BME280;9707;49.158;8.632;2023-05-22T00:04:39;99953.13;;;25.22;40.43
19150;BME280;9707;49.158;8.632;2023-05-22T00:07:04;99948.69;;;25.21;40.32
19150;BME280;9707;49.158;8.632;2023-05-22T00:09:31;99948.69;;;25.21;40.46
19150;BME280;9707;49.158;8.632;2023-05-22T00:11:56;99946.13;;;25.19;40.53
19150;BME280;9707;49.158;8.632;2023-05-22T00:14:21;99958.03;;;25.18;40.57
19150;BME280;9707;49.158;8.632;2023-05-22T00:16:47;99955.47;;;25.17;40.63
19150;BME280;9707;49.158;8.632;2023-05-22T00:19:12;99956.50;;;25.16;40.37
19150;BME280;9707;49.158;8.632;2023-05-22T00:21:44;99954.78;;;25.15;40.41
19150;BME280;9707;49.158;8.632;2023-05-22T00:24:09;99949.50;;;25.13;40.59
19150;BME280;9707;49.158;8.632;2023-05-22T00:26:34;99951.38;;;25.13;40.64
19150;BME280;9707;49.158;8.632;2023-05-22T00:29:00;99952.38;;;25.12;40.56
19150;BME280;9707;49.158;8.632;2023-05-22T00:31:25;99955.28;;;25.10;40.62
19150;BME280;9707;49.158;8.632;2023-05-22T00:33:51;99967.19;;;25.09;40.89
19150;BME280;9707;49.158;8.632;2023-05-22T00:36:16;99953.75;;;25.08;40.70
19150;BME280;9707;49.158;8.632;2023-05-22T00:38:42;99962.06;;;25.06;40.97
19150;BME280;9707;49.158;8.632;2023-05-22T00:41:08;99956.78;;;25.05;40.71
19150;BME280;9707;49.158;8.632;2023-05-22T00:43:33;99952.34;;;25.04;40.98
19150;BME280;9707;49.158;8.632;2023-05-22T00:45:59;99951.47;;;25.03;40.69
19150;BME280;9707;49.158;8.632;2023-05-22T00:48:25;99951.63;;;25.02;40.84
19150;BME280;9707;49.158;8.632;2023-05-22T00:50:51;99950.66;;;25.03;40.46
19150;BME280;9707;49.158;8.632;2023-05-22T00:53:19;99948.91;;;25.02;40.46
19150;BME280;9707;49.158;8.632;2023-05-22T00:55:45;99949.09;;;25.00;40.55
19150;BME280;9707;49.158;8.632;2023-05-22T00:58:17;99950.97;;;25.00;40.79
19150;BME280;9707;49.158;8.632;2023-05-22T01:00:43;99943.81;;;24.99;40.83
19150;BME280;9707;49.158;8.632;2023-05-22T01:03:09;99949.41;;;24.97;40.79
19150;BME280;9707;49.158;8.632;2023-05-22T01:05:36;99946.69;;;24.97;40.69
19150;BME280;9707;49.158;8.632;2023-05-22T01:08:02;99950.59;;;24.95;40.73
19150;BME280;9707;49.158;8.632;2023-05-22T01:10:28;99951.59;;;24.94;40.68
19150;BME280;9707;49.158;8.632;2023-05-22T01:13:01;99957.06;;;24.94;40.78
19150;BME280;9707;49.158;8.632;2023-05-22T01:15:42;99946.16;;;24.94;40.62
19150;BME280;9707;49.158;8.632;2023-05-22T01:21:08;99962.81;;;24.91;40.88
19150;BME280;9707;49.158;8.632;2023-05-22T01:24:10;99953.09;;;24.88;40.40
19150;BME280;9707;49.158;8.632;2023-05-22T01:27:02;99957.69;;;24.88;40.35
19150;BME280;9707;49.158;8.632;2023-05-22T01:32:01;99965.16;;;24.86;40.65
19150;BME280;9707;49.158;8.632;2023-05-22T01:34:27;99959.72;;;24.86;40.58
19150;BME280;9707;49.158;8.632;2023-05-22T01:36:55;99963.47;;;24.85;40.56
19150;BME280;9707;49.158;8.632;2023-05-22T01:39:21;99971.63;;;24.85;40.72
19150;BME280;9707;49.158;8.632;2023-05-22T01:41:47;99968.06;;;24.84;40.80
19150;BME280;9707;49.158;8.632;2023-05-22T01:44:13;99967.22;;;24.84;40.68
19150;BME280;9707;49.158;8.632;2023-05-22T01:46:38;99965.50;;;24.83;40.79
19150;BME280;9707;49.158;8.632;2023-05-22T01:49:03;99970.94;;;24.83;40.79
19150;BME280;9707;49.158;8.632;2023-05-22T01:54:47;99975.00;;;24.79;40.66
19150;BME280;9707;49.158;8.632;2023-05-22T01:57:23;99967.84;;;24.78;40.70
19150;BME280;9707;49.158;8.632;2023-05-22T01:59:55;99970.56;;;24.78;40.71
19150;BME280;9707;49.158;8.632;2023-05-22T02:02:24;99972.44;;;24.77;40.52
19150;BME280;9707;49.158;8.632;2023-05-22T02:04:55;99971.59;;;24.77;40.62
19150;BME280;9707;49.158;8.632;2023-05-22T02:07:23;99975.31;;;24.76;40.69
19150;BME280;9707;49.158;8.632;2023-05-22T02:09:50;99978.03;;;24.76;40.39
19150;BME280;9707;49.158;8.632;2023-05-22T02:12:18;99985.38;;;24.75;40.56
19150;BME280;9707;49.158;8.632;2023-05-22T02:14:44;99980.94;;;24.74;40.36
19150;BME280;9707;49.158;8.632;2023-05-22T02:17:09;99985.50;;;24.74;40.60
19150;BME280;9707;49.158;8.632;2023-05-22T02:19:34;99985.50;;;24.74;40.47
19150;BME280;9707;49.158;8.632;2023-05-22T02:22:00;99988.25;;;24.74;40.61
19150;BME280;9707;49.158;8.632;2023-05-22T02:24:25;99992.13;;;24.71;40.60
19150;BME280;9707;49.158;8.632;2023-05-22T02:26:51;99989.41;;;24.71;40.65
19150;BME280;9707;49.158;8.632;2023-05-22T02:29:16;99985.13;;;24.69;40.70
19150;BME280;9707;49.158;8.632;2023-05-22T02:31:41;99989.56;;;24.70;40.50
19150;BME280;9707;49.158;8.632;2023-05-22T02:34:06;99996.03;;;24.69;40.51
19150;BME280;9707;49.158;8.632;2023-05-22T02:36:32;99984.25;;;24.68;40.68
19150;BME280;9707;49.158;8.632;2023-05-22T02:38:58;99994.31;;;24.68;40.47
19150;BME280;9707;49.158;8.632;2023-05-22T02:41:23;99989.91;;;24.67;40.45
19150;BME280;9707;49.158;8.632;2023-05-22T02:43:49;99990.88;;;24.66;40.52
19150;BME280;9707;49.158;8.632;2023-05-22T02:46:14;99981.72;;;24.67;40.31
19150;BME280;9707;49.158;8.632;2023-05-22T02:48:39;99990.06;;;24.65;40.47
19150;BME280;9707;49.158;8.632;2023-05-22T02:51:05;99985.44;;;24.66;40.49
19150;BME280;9707;49.158;8.632;2023-05-22T02:53:30;99997.34;;;24.65;40.42
19150;BME280;9707;49.158;8.632;2023-05-22T02:55:57;99984.59;;;24.65;40.53
19150;BME280;9707;49.158;8.632;2023-05-22T02:58:23;99982.03;;;24.64;40.53
19150;BME280;9707;49.158;8.632;2023-05-22T03:00:49;99998.38;;;24.64;40.33
19150;BME280;9707;49.158;8.632;2023-05-22T03:03:17;99998.38;;;24.64;40.25
19150;BME280;9707;49.158;8.632;2023-05-22T03:05:42;99992.06;;;24.63;40.44
19150;BME280;9707;49.158;8.632;2023-05-22T03:08:07;99994.97;;;24.62;40.39
19150;BME280;9707;49.158;8.632;2023-05-22T03:10:33;99989.66;;;24.60;40.15
19150;BME280;9707;49.158;8.632;2023-05-22T03:12:58;100000.56;;;24.60;40.19
19150;BME280;9707;49.158;8.632;2023-05-22T03:15:23;99996.97;;;24.60;40.15
19150;BME280;9707;49.158;8.632;2023-05-22T03:17:48;99994.25;;;24.60;40.32
19150;BME280;9707;49.158;8.632;2023-05-22T03:20:14;99999.69;;;24.60;39.98
19150;BME280;9707;49.158;8.632;2023-05-22T03:22:40;100006.16;;;24.59;40.25
19150;BME280;9707;49.158;8.632;2023-05-22T03:25:06;99994.41;;;24.58;40.31
19150;BME280;9707;49.158;8.632;2023-05-22T03:27:33;100004.44;;;24.58;40.28
19150;BME280;9707;49.158;8.632;2023-05-22T03:29:58;99998.97;;;24.58;40.23
19150;BME280;9707;49.158;8.632;2023-05-22T03:32:24;100008.16;;;24.57;40.17
19150;BME280;9707;49.158;8.632;2023-05-22T03:34:49;100005.44;;;24.57;40.00
19150;BME280;9707;49.158;8.632;2023-05-22T03:37:14;100009.16;;;24.56;40.10
19150;BME280;9707;49.158;8.632;2023-05-22T03:39:39;100002.00;;;24.55;40.24
19150;BME280;9707;49.158;8.632;2023-05-22T03:42:05;100002.16;;;24.53;40.13
19150;BME280;9707;49.158;8.632;2023-05-22T03:44:30;100004.88;;;24.53;40.07
19150;BME280;9707;49.158;8.632;2023-05-22T03:46:55;100007.59;;;24.53;40.25
19150;BME280;9707;49.158;8.632;2023-05-22T03:49:21;100005.88;;;24.52;40.12
19150;BME280;9707;49.158;8.632;2023-05-22T03:51:46;100001.31;;;24.53;39.96
19150;BME280;9707;49.158;8.632;2023-05-22T03:54:11;100009.47;;;24.53;40.12
19150;BME280;9707;49.158;8.632;2023-05-22T03:56:36;100005.88;;;24.52;40.04
19150;BME280;9707;49.158;8.632;2023-05-22T03:59:02;100002.34;;;24.52;40.33
19150;BME280;9707;49.158;8.632;2023-05-22T04:01:27;99997.88;;;24.51;40.44
19150;BME280;9707;49.158;8.632;2023-05-22T04:03:53;100003.31;;;24.51;40.24
19150;BME280;9707;49.158;8.632;2023-05-22T04:06:19;100005.22;;;24.50;40.28
19150;BME280;9707;49.158;8.632;2023-05-22T04:08:46;100008.75;;;24.51;40.37
19150;BME280;9707;49.158;8.632;2023-05-22T04:11:12;100009.63;;;24.51;40.17
19150;BME280;9707;49.158;8.632;2023-05-22T04:13:39;100008.75;;;24.51;40.23
19150;BME280;9707;49.158;8.632;2023-05-22T04:16:05;100007.06;;;24.50;40.45
19150;BME280;9707;49.158;8.632;2023-05-22T04:18:30;100015.22;;;24.50;40.24
19150;BME280;9707;49.158;8.632;2023-05-22T04:20:55;100005.34;;;24.49;40.13
19150;BME280;9707;49.158;8.632;2023-05-22T04:23:21;100009.94;;;24.48;40.61
19150;BME280;9707;49.158;8.632;2023-05-22T04:25:46;100015.22;;;24.50;40.52
19150;BME280;9707;49.158;8.632;2023-05-22T04:28:12;100015.38;;;24.48;40.56
19150;BME280;9707;49.158;8.632;2023-05-22T04:30:37;100014.53;;;24.48;40.50
19150;BME280;9707;49.158;8.632;2023-05-22T04:33:03;100011.81;;;24.48;40.32
19150;BME280;9707;49.158;8.632;2023-05-22T04:35:29;100010.81;;;24.49;40.59
19150;BME280;9707;49.158;8.632;2023-05-22T04:37:58;100013.53;;;24.49;40.39
19150;BME280;9707;49.158;8.632;2023-05-22T04:40:27;100024.25;;;24.50;40.54
19150;BME280;9707;49.158;8.632;2023-05-22T04:42:54;100017.25;;;24.48;40.50
19150;BME280;9707;49.158;8.632;2023-05-22T04:45:19;100024.25;;;24.50;40.50
19150;BME280;9707;49.158;8.632;2023-05-22T04:47:49;100016.25;;;24.49;40.57
19150;BME280;9707;49.158;8.632;2023-05-22T04:50:16;100021.69;;;24.49;40.51
19150;BME280;9707;49.158;8.632;2023-05-22T04:52:41;100021.69;;;24.49;40.73
19150;BME280;9707;49.158;8.632;2023-05-22T04:55:07;100022.56;;;24.49;40.69
19150;BME280;9707;49.158;8.632;2023-05-22T04:57:32;100021.69;;;24.49;40.71
19150;BME280;9707;49.158;8.632;2023-05-22T04:59:57;100019.84;;;24.49;40.69
19150;BME280;9707;49.158;8.632;2023-05-22T05:02:23;100026.13;;;24.50;40.88
19150;BME280;9707;49.158;8.632;2023-05-22T05:04:48;100026.13;;;24.50;40.92
19150;BME280;9707;49.158;8.632;2023-05-22T05:07:13;100023.41;;;24.50;40.97
19150;BME280;9707;49.158;8.632;2023-05-22T05:09:42;100026.13;;;24.50;41.09
19150;BME280;9707;49.158;8.632;2023-05-22T05:12:08;100023.41;;;24.50;41.06
19150;BME280;9707;49.158;8.632;2023-05-22T05:14:33;100019.66;;;24.51;40.88
19150;BME280;9707;49.158;8.632;2023-05-22T05:16:58;100028.53;;;24.53;40.76
19150;BME280;9707;49.158;8.632;2023-05-22T05:19:23;100021.41;;;24.52;40.94
19150;BME280;9707;49.158;8.632;2023-05-22T05:21:49;100024.81;;;24.54;41.22
19150;BME280;9707;49.158;8.632;2023-05-22T05:24:17;100028.53;;;24.53;41.43
19150;BME280;9707;49.158;8.632;2023-05-22T05:26:43;100022.22;;;24.52;41.39
19150;BME280;9707;49.158;8.632;2023-05-22T05:29:09;100027.53;;;24.54;41.34
19150;BME280;9707;49.158;8.632;2023-05-22T05:31:34;100029.38;;;24.53;41.55
19150;BME280;9707;49.158;8.632;2023-05-22T05:34:00;100029.38;;;24.53;41.86
19150;BME280;9707;49.158;8.632;2023-05-22T05:36:25;100029.38;;;24.53;42.12
19150;BME280;9707;49.158;8.632;2023-05-22T05:38:51;100034.00;;;24.53;42.26
19150;BME280;9707;49.158;8.632;2023-05-22T05:41:16;100039.44;;;24.53;42.21
19150;BME280;9707;49.158;8.632;2023-05-22T05:43:43;100038.56;;;24.52;42.32
19150;BME280;9707;49.158;8.632;2023-05-22T05:46:08;100040.28;;;24.53;42.35
19150;BME280;9707;49.158;8.632;2023-05-22T05:48:34;100034.00;;;24.53;42.34
19150;BME280;9707;49.158;8.632;2023-05-22T05:50:59;100033.84;;;24.54;42.74
19150;BME280;9707;49.158;8.632;2023-05-22T05:53:24;100036.56;;;24.54;42.70
19150;BME280;9707;49.158;8.632;2023-05-22T05:55:49;100047.28;;;24.56;42.55
19150;BME280;9707;49.158;8.632;2023-05-22T05:58:15;100044.56;;;24.56;42.58
19150;BME280;9707;49.158;8.632;2023-05-22T06:00:41;100048.00;;;24.58;42.45
19150;BME280;9707;49.158;8.632;2023-05-22T06:03:06;100039.81;;;24.58;42.80
19150;BME280;9707;49.158;8.632;2023-05-22T06:05:31;100045.16;;;24.59;42.64
19150;BME280;9707;49.158;8.632;2023-05-22T06:07:56;100044.97;;;24.61;42.50
19150;BME280;9707;49.158;8.632;2023-05-22T06:10:23;100049.44;;;24.62;42.78
19150;BME280;9707;49.158;8.632;2023-05-22T06:12:48;100045.69;;;24.63;43.32
19150;BME280;9707;49.158;8.632;2023-05-22T06:15:13;100053.88;;;24.63;43.56
19150;BME280;9707;49.158;8.632;2023-05-22T06:17:38;100054.56;;;24.65;43.65
19150;BME280;9707;49.158;8.632;2023-05-22T06:20:04;100049.09;;;24.65;44.02
19150;BME280;9707;49.158;8.632;2023-05-22T06:22:31;100047.25;;;24.65;43.97
19150;BME280;9707;49.158;8.632;2023-05-22T06:24:56;100049.81;;;24.67;44.27
19150;BME280;9707;49.158;8.632;2023-05-22T06:27:22;100058.81;;;24.67;44.41
19150;BME280;9707;49.158;8.632;2023-05-22T06:29:48;100047.94;;;24.67;44.46
19150;BME280;9707;49.158;8.632;2023-05-22T06:32:14;100054.94;;;24.70;44.73
19150;BME280;9707;49.158;8.632;2023-05-22T06:34:39;100053.09;;;24.70;44.64
19150;BME280;9707;49.158;8.632;2023-05-22T06:37:05;100059.38;;;24.71;44.79
19150;BME280;9707;49.158;8.632;2023-05-22T06:39:31;100053.63;;;24.74;44.64
19150;BME280;9707;49.158;8.632;2023-05-22T06:41:56;100054.50;;;24.74;44.55
19150;BME280;9707;49.158;8.632;2023-05-22T06:44:21;100043.41;;;24.76;44.70
19150;BME280;9707;49.158;8.632;2023-05-22T06:46:46;100054.16;;;24.77;44.50
19150;BME280;9707;49.158;8.632;2023-05-22T06:49:12;100050.41;;;24.78;45.04
19150;BME280;9707;49.158;8.632;2023-05-22T06:51:37;100052.97;;;24.80;44.98
19150;BME280;9707;49.158;8.632;2023-05-22T06:54:02;100048.25;;;24.82;45.00
19150;BME280;9707;49.158;8.632;2023-05-22T06:56:30;100047.22;;;24.83;44.76
19150;BME280;9707;49.158;8.632;2023-05-22T06:58:56;100053.38;;;24.85;45.00
19150;BME280;9707;49.158;8.632;2023-05-22T07:01:21;100052.34;;;24.86;44.85
19150;BME280;9707;49.158;8.632;2023-05-22T07:03:47;100054.09;;;24.87;44.79
19150;BME280;9707;49.158;8.632;2023-05-22T07:06:12;100052.03;;;24.89;44.91
19150;BME280;9707;49.158;8.632;2023-05-22T07:08:37;100051.03;;;24.90;44.89
19150;BME280;9707;49.158;8.632;2023-05-22T07:11:03;100051.72;;;24.92;44.76
19150;BME280;9707;49.158;8.632;2023-05-22T07:13:30;100056.84;;;24.95;44.66
19150;BME280;9707;49.158;8.632;2023-05-22T07:15:56;100058.56;;;24.96;44.41
19150;BME280;9707;49.158;8.632;2023-05-22T07:18:21;100048.53;;;24.96;44.61
19150;BME280;9707;49.158;8.632;2023-05-22T07:20:46;100057.22;;;25.00;44.38
19150;BME280;9707;49.158;8.632;2023-05-22T07:23:12;100058.78;;;25.02;44.18
19150;BME280;9707;49.158;8.632;2023-05-22T07:25:37;100057.63;;;25.05;44.29
19150;BME280;9707;49.158;8.632;2023-05-22T07:28:02;100066.47;;;25.07;44.26
19150;BME280;9707;49.158;8.632;2023-05-22T07:30:34;100071.09;;;25.06;43.80
19150;BME280;9707;49.158;8.632;2023-05-22T07:32:59;100065.31;;;25.09;43.98
19150;BME280;9707;49.158;8.632;2023-05-22T07:35:25;100060.41;;;25.13;43.85
19150;BME280;9707;49.158;8.632;2023-05-22T07:37:50;100073.88;;;25.14;43.75
19150;BME280;9707;49.158;8.632;2023-05-22T07:40:15;100062.81;;;25.16;43.63
19150;BME280;9707;49.158;8.632;2023-05-22T07:42:40;100074.44;;;25.18;43.63
19150;BME280;9707;49.158;8.632;2023-05-22T07:45:06;100061.47;;;25.20;44.04
19150;BME280;9707;49.158;8.632;2023-05-22T07:47:31;100066.78;;;25.21;43.76
19150;BME280;9707;49.158;8.632;2023-05-22T07:49:57;100067.47;;;25.23;43.94
19150;BME280;9707;49.158;8.632;2023-05-22T07:52:22;100067.31;;;25.25;44.36
19150;BME280;9707;49.158;8.632;2023-05-22T07:54:47;100067.19;;;25.26;44.07
19150;BME280;9707;49.158;8.632;2023-05-22T07:57:13;100062.41;;;25.28;43.79
19150;BME280;9707;49.158;8.632;2023-05-22T07:59:40;100070.28;;;25.31;43.85
19150;BME280;9707;49.158;8.632;2023-05-22T08:02:08;100067.41;;;25.33;43.74
19150;BME280;9707;49.158;8.632;2023-05-22T08:04:34;100060.94;;;25.34;43.69
19150;BME280;9707;49.158;8.632;2023-05-22T08:06:59;100070.66;;;25.36;43.67
19150;BME280;9707;49.158;8.632;2023-05-22T08:09:25;100072.22;;;25.39;43.58
19150;BME280;9707;49.158;8.632;2023-05-22T08:11:51;100066.75;;;25.39;43.71
19150;BME280;9707;49.158;8.632;2023-05-22T08:14:16;100070.16;;;25.41;43.21
19150;BME280;9707;49.158;8.632;2023-05-22T08:16:41;100073.63;;;25.43;43.37
19150;BME280;9707;49.158;8.632;2023-05-22T08:19:06;100077.03;;;25.45;42.77
19150;BME280;9707;49.158;8.632;2023-05-22T08:21:32;100074.97;;;25.47;43.30
19150;BME280;9707;49.158;8.632;2023-05-22T08:23:59;100078.41;;;25.49;43.55
19150;BME280;9707;49.158;8.632;2023-05-22T08:26:24;100074.66;;;25.50;43.24
19150;BME280;9707;49.158;8.632;2023-05-22T08:28:50;100070.91;;;25.51;43.61
19150;BME280;9707;49.158;8.632;2023-05-22T08:31:16;100075.19;;;25.53;43.44
19150;BME280;9707;49.158;8.632;2023-05-22T08:33:41;100072.31;;;25.55;43.30
19150;BME280;9707;49.158;8.632;2023-05-22T08:36:06;100068.56;;;25.56;43.20
19150;BME280;9707;49.158;8.632;2023-05-22T08:38:32;100068.41;;;25.57;43.58
19150;BME280;9707;49.158;8.632;2023-05-22T08:40:57;100069.94;;;25.60;43.99
19150;BME280;9707;49.158;8.632;2023-05-22T08:43:23;100062.44;;;25.62;44.35
19150;BME280;9707;49.158;8.632;2023-05-22T08:45:54;100065.19;;;25.62;44.05
19150;BME280;9707;49.158;8.632;2023-05-22T08:48:22;100065.88;;;25.64;43.49
19150;BME280;9707;49.158;8.632;2023-05-22T08:50:52;100052.94;;;25.66;43.18
19150;BME280;9707;49.158;8.632;2023-05-22T08:53:21;100058.06;;;25.69;43.06
19150;BME280;9707;49.158;8.632;2023-05-22T08:55:48;100053.13;;;25.72;44.01
19150;BME280;9707;49.158;8.632;2023-05-22T08:58:13;100047.53;;;25.74;43.80
19150;BME280;9707;49.158;8.632;2023-05-22T09:00:40;100045.63;;;25.74;43.80
19150;BME280;9707;49.158;8.632;2023-05-22T09:03:05;100045.47;;;25.76;43.89
19150;BME280;9707;49.158;8.632;2023-05-22T09:05:34;100044.28;;;25.78;43.77
19150;BME280;9707;49.158;8.632;2023-05-22T09:08:01;100049.59;;;25.80;44.07
19150;BME280;9707;49.158;8.632;2023-05-22T09:10:28;100044.81;;;25.82;44.22
19150;BME280;9707;49.158;8.632;2023-05-22T09:13:03;100050.13;;;25.83;44.66
19150;BME280;9707;49.158;8.632;2023-05-22T09:15:32;100046.34;;;25.84;44.34
19150;BME280;9707;49.158;8.632;2023-05-22T09:17:59;100044.34;;;25.86;44.45
19150;BME280;9707;49.158;8.632;2023-05-22T09:20:24;100049.44;;;25.89;43.42
19150;BME280;9707;49.158;8.632;2023-05-22T09:22:49;100046.56;;;25.91;43.89
19150;BME280;9707;49.158;8.632;2023-05-22T09:25:18;100052.72;;;25.93;44.42
19150;BME280;9707;49.158;8.632;2023-05-22T09:27:45;100053.44;;;25.95;44.28
19150;BME280;9707;49.158;8.632;2023-05-22T09:30:11;100054.13;;;25.97;44.33
19150;BME280;9707;49.158;8.632;2023-05-22T09:32:42;100049.38;;;25.99;44.67
19150;BME280;9707;49.158;8.632;2023-05-22T09:35:08;100056.38;;;26.01;43.80
19150;BME280;9707;49.158;8.632;2023-05-22T09:37:36;100052.47;;;26.04;43.99
19150;BME280;9707;49.158;8.632;2023-05-22T09:40:05;100043.91;;;26.07;43.93
19150;BME280;9707;49.158;8.632;2023-05-22T09:42:32;100049.06;;;26.10;43.25
19150;BME280;9707;49.158;8.632;2023-05-22T09:45:05;100048.03;;;26.11;42.97
19150;BME280;9707;49.158;8.632;2023-05-22T09:47:31;100049.56;;;26.13;42.55
19150;BME280;9707;49.158;8.632;2023-05-22T09:50:01;100036.78;;;26.14;42.26
19150;BME280;9707;49.158;8.632;2023-05-22T09:52:32;100042.75;;;26.17;43.34
19150;BME280;9707;49.158;8.632;2023-05-22T09:55:01;100032.69;;;26.18;43.32
19150;BME280;9707;49.158;8.632;2023-05-22T09:57:28;100036.94;;;26.20;42.92
19150;BME280;9707;49.158;8.632;2023-05-22T09:59:56;100034.06;;;26.22;43.02
19150;BME280;9707;49.158;8.632;2023-05-22T10:02:24;100034.78;;;26.24;43.04
19150;BME280;9707;49.158;8.632;2023-05-22T10:04:50;100035.44;;;26.26;42.81
19150;BME280;9707;49.158;8.632;2023-05-22T10:07:20;100025.38;;;26.26;42.15
19150;BME280;9707;49.158;8.632;2023-05-22T10:09:51;100036.81;;;26.30;42.78
19150;BME280;9707;49.158;8.632;2023-05-22T10:12:20;100031.38;;;26.30;42.83
19150;BME280;9707;49.158;8.632;2023-05-22T10:14:46;100035.44;;;26.34;42.88
19150;BME280;9707;49.158;8.632;2023-05-22T10:17:12;100029.00;;;26.35;42.89
19150;BME280;9707;49.158;8.632;2023-05-22T10:19:39;100032.38;;;26.37;42.41
19150;BME280;9707;49.158;8.632;2023-05-22T10:22:05;100035.78;;;26.39;42.35
19150;BME280;9707;49.158;8.632;2023-05-22T10:24:30;100031.03;;;26.41;42.22
19150;BME280;9707;49.158;8.632;2023-05-22T10:26:56;100025.41;;;26.42;42.22
19150;BME280;9707;49.158;8.632;2023-05-22T10:29:24;100031.38;;;26.46;42.10
19150;BME280;9707;49.158;8.632;2023-05-22T10:31:59;100020.47;;;26.46;41.47
19150;BME280;9707;49.158;8.632;2023-05-22T10:37:52;100018.41;;;26.48;41.42
19150;BME280;9707;49.158;8.632;2023-05-22T10:40:25;100016.38;;;26.50;42.20
19150;BME280;9707;49.158;8.632;2023-05-22T10:42:57;100016.03;;;26.53;42.83
19150;BME280;9707;49.158;8.632;2023-05-22T10:45:24;100010.56;;;26.53;42.46
19150;BME280;9707;49.158;8.632;2023-05-22T10:48:08;100014.00;;;26.55;42.03
19150;BME280;9707;49.158;8.632;2023-05-22T10:50:37;99999.34;;;26.56;42.13
19150;BME280;9707;49.158;8.632;2023-05-22T10:53:22;99997.28;;;26.58;42.25
19150;BME280;9707;49.158;8.632;2023-05-22T10:55:55;99998.97;;;26.59;41.96
19150;BME280;9707;49.158;8.632;2023-05-22T10:58:41;100000.50;;;26.61;42.11
19150;BME280;9707;49.158;8.632;2023-05-22T11:01:10;99992.84;;;26.65;42.57
19150;BME280;9707;49.158;8.632;2023-05-22T11:03:59;99996.25;;;26.67;42.21
19150;BME280;9707;49.158;8.632;2023-05-22T11:06:44;99994.19;;;26.69;41.99
19150;BME280;9707;49.158;8.632;2023-05-22T11:09:16;99995.72;;;26.71;41.72
19150;BME280;9707;49.158;8.632;2023-05-22T11:11:43;99984.47;;;26.74;41.32
19150;BME280;9707;49.158;8.632;2023-05-22T11:14:10;99981.56;;;26.76;41.06
19150;BME280;9707;49.158;8.632;2023-05-22T11:16:37;99983.94;;;26.79;41.33
19150;BME280;9707;49.158;8.632;2023-05-22T11:19:06;99980.22;;;26.80;40.89
19150;BME280;9707;49.158;8.632;2023-05-22T11:21:50;99979.19;;;26.81;41.50
19150;BME280;9707;49.158;8.632;2023-05-22T11:24:16;99969.94;;;26.82;41.39
19150;BME280;9707;49.158;8.632;2023-05-22T11:26:42;99972.34;;;26.85;40.39
19150;BME280;9707;49.158;8.632;2023-05-22T11:29:08;99973.19;;;26.85;40.18
19150;BME280;9707;49.158;8.632;2023-05-22T11:31:36;99969.25;;;26.88;40.18
19150;BME280;9707;49.158;8.632;2023-05-22T11:34:02;99967.03;;;26.91;40.71
19150;BME280;9707;49.158;8.632;2023-05-22T11:36:28;99964.13;;;26.93;40.34
19150;BME280;9707;49.158;8.632;2023-05-22T11:38:57;99968.38;;;26.95;39.93
19150;BME280;9707;49.158;8.632;2023-05-22T11:41:23;99969.09;;;26.97;38.79
19150;BME280;9707;49.158;8.632;2023-05-22T11:43:48;99965.31;;;26.98;38.78
19150;BME280;9707;49.158;8.632;2023-05-22T11:46:16;99965.81;;;27.02;39.13
19150;BME280;9707;49.158;8.632;2023-05-22T11:48:42;99958.28;;;27.04;39.07
19150;BME280;9707;49.158;8.632;2023-05-22T11:51:07;99964.44;;;27.06;38.99
19150;BME280;9707;49.158;8.632;2023-05-22T11:53:34;99959.66;;;27.08;38.33
19150;BME280;9707;49.158;8.632;2023-05-22T11:56:03;99954.00;;;27.09;38.69
19150;BME280;9707;49.158;8.632;2023-05-22T11:58:29;99957.41;;;27.11;38.59
19150;BME280;9707;49.158;8.632;2023-05-22T12:01:00;99955.38;;;27.13;38.51
19150;BME280;9707;49.158;8.632;2023-05-22T12:03:25;99945.28;;;27.14;38.66
19150;BME280;9707;49.158;8.632;2023-05-22T12:05:50;99948.53;;;27.17;38.62
19150;BME280;9707;49.158;8.632;2023-05-22T12:08:16;99944.59;;;27.20;38.45
19150;BME280;9707;49.158;8.632;2023-05-22T12:11:03;99945.47;;;27.20;37.93
19150;BME280;9707;49.158;8.632;2023-05-22T12:13:28;99944.25;;;27.23;38.31
19150;BME280;9707;49.158;8.632;2023-05-22T12:15:57;99939.47;;;27.25;38.19
19150;BME280;9707;49.158;8.632;2023-05-22T12:18:24;99945.63;;;27.27;38.25
19150;BME280;9707;49.158;8.632;2023-05-22T12:20:53;99946.28;;;27.29;38.13
19150;BME280;9707;49.158;8.632;2023-05-22T12:23:26;99942.34;;;27.31;38.31
19150;BME280;9707;49.158;8.632;2023-05-22T12:26:02;99941.50;;;27.31;38.29
19150;BME280;9707;49.158;8.632;2023-05-22T12:28:30;99935.84;;;27.32;38.28
19150;BME280;9707;49.158;8.632;2023-05-22T12:30:56;99942.19;;;27.33;38.16
19150;BME280;9707;49.158;8.632;2023-05-22T12:33:28;99930.22;;;27.34;38.00
19150;BME280;9707;49.158;8.632;2023-05-22T12:35:55;99933.63;;;27.36;37.75
19150;BME280;9707;49.158;8.632;2023-05-22T12:38:28;99934.47;;;27.36;36.51
19150;BME280;9707;49.158;8.632;2023-05-22T12:40:54;99929.88;;;27.37;36.47
19150;BME280;9707;49.158;8.632;2023-05-22T12:43:22;99938.72;;;27.39;36.31
19150;BME280;9707;49.158;8.632;2023-05-22T12:45:47;99933.25;;;27.39;36.07
19150;BME280;9707;49.158;8.632;2023-05-22T12:48:13;99937.53;;;27.41;36.85
19150;BME280;9707;49.158;8.632;2023-05-22T12:50:38;99929.31;;;27.41;35.75
19150;BME280;9707;49.158;8.632;2023-05-22T12:53:04;99928.28;;;27.42;35.46
19150;BME280;9707;49.158;8.632;2023-05-22T12:55:29;99930.00;;;27.43;35.69
19150;BME280;9707;49.158;8.632;2023-05-22T12:57:55;99927.94;;;27.45;35.29
19150;BME280;9707;49.158;8.632;2023-05-22T13:00:21;99924.16;;;27.46;35.13
19150;BME280;9707;49.158;8.632;2023-05-22T13:02:47;99925.69;;;27.49;35.54
19150;BME280;9707;49.158;8.632;2023-05-22T13:05:12;99919.19;;;27.50;35.51
19150;BME280;9707;49.158;8.632;2023-05-22T13:07:37;99919.88;;;27.52;35.15
19150;BME280;9707;49.158;8.632;2023-05-22T13:10:03;99924.16;;;27.54;34.85
19150;BME280;9707;49.158;8.632;2023-05-22T13:12:29;99914.03;;;27.55;35.30
19150;BME280;9707;49.158;8.632;2023-05-22T13:14:56;99910.94;;;27.58;35.49
19150;BME280;9707;49.158;8.632;2023-05-22T13:17:21;99907.19;;;27.59;35.22